Time;durP1;ratioP1;P1;durP2;ratioP2;P2;SDS_P1;SDS_P2;PMS_P1;PMS_P2;Temp;Humidity;BMP_temperature;BMP_pressure;BME280_temperature;BME280_humidity;BME280_pressure;Samples;Min_cycle;Max_cycle;Signal;HPM_P1;HPM_P2
2023/08/13 00:00:15;;;;;;;7.10;3.40;;;19.00;99.90;;;;;;2518689;23;20003;-72
2023/08/13 00:01:16;;;;;;;11.10;3.67;;;19.00;99.90;;;;;;2519792;23;20010;-73
2023/08/13 00:02:16;;;;;;;8.35;3.22;;;18.90;99.90;;;;;;2518284;23;20513;-72
2023/08/13 00:03:17;;;;;;;6.93;3.15;;;19.00;99.90;;;;;;2518424;23;20010;-72
2023/08/13 00:04:17;;;;;;;4.05;3.15;;;19.00;99.90;;;;;;2518666;23;20494;-72
2023/08/13 00:05:18;;;;;;;7.22;3.30;;;18.90;99.90;;;;;;2505917;23;20098;-72
2023/08/13 00:06:19;;;;;;;5.70;2.85;;;18.90;99.90;;;;;;2506843;23;20389;-72
2023/08/13 00:07:19;;;;;;;6.00;3.10;;;18.90;99.90;;;;;;2518400;23;20006;-72
2023/08/13 00:08:20;;;;;;;5.35;3.00;;;18.90;99.90;;;;;;2519155;23;20002;-72
2023/08/13 00:09:20;;;;;;;5.50;2.88;;;18.90;99.90;;;;;;2506535;23;20015;-72
2023/08/13 00:10:21;;;;;;;5.75;3.05;;;18.90;99.90;;;;;;2506438;23;20013;-72
2023/08/13 00:11:21;;;;;;;6.72;3.38;;;19.00;99.90;;;;;;2519517;23;20014;-72
2023/08/13 00:12:22;;;;;;;2.53;2.33;;;18.90;99.90;;;;;;2517574;23;20435;-72
2023/08/13 00:13:23;;;;;;;6.47;3.03;;;18.90;99.90;;;;;;2519607;23;20439;-72
2023/08/13 00:14:23;;;;;;;5.95;3.00;;;18.90;99.90;;;;;;2519673;23;20021;-72
2023/08/13 00:15:24;;;;;;;6.35;2.92;;;18.90;99.90;;;;;;2519117;23;20002;-72
2023/08/13 00:16:25;;;;;;;8.73;2.97;;;19.00;99.90;;;;;;2518687;23;20692;-72
2023/08/13 00:17:25;;;;;;;4.55;2.42;;;18.90;99.90;;;;;;2519086;23;20557;-72
2023/08/13 00:18:28;;;;;;;4.88;2.63;;;18.90;99.90;;;;;;2506491;23;20018;-72
2023/08/13 00:19:28;;;;;;;8.15;3.10;;;18.90;99.90;;;;;;2507159;23;19999;-72
2023/08/13 00:20:29;;;;;;;3.85;2.63;;;18.90;99.90;;;;;;2519111;23;20026;-72
2023/08/13 00:21:29;;;;;;;6.70;2.97;;;18.90;99.90;;;;;;2518982;23;20037;-72
2023/08/13 00:22:30;;;;;;;7.75;2.95;;;18.90;99.90;;;;;;2519750;23;20052;-72
2023/08/13 00:23:30;;;;;;;5.57;2.78;;;18.90;99.90;;;;;;2519048;23;20301;-72
2023/08/13 00:24:31;;;;;;;4.25;2.42;;;18.80;99.90;;;;;;2519240;23;20009;-72
2023/08/13 00:25:32;;;;;;;4.18;2.45;;;18.90;99.90;;;;;;2519588;23;20007;-72
2023/08/13 00:26:32;;;;;;;4.45;2.78;;;18.80;99.90;;;;;;2518557;23;20009;-72
2023/08/13 00:27:33;;;;;;;5.88;2.80;;;18.80;99.90;;;;;;2506340;23;20110;-72
2023/08/13 00:28:33;;;;;;;5.82;2.47;;;18.80;99.90;;;;;;2506483;23;20015;-72
2023/08/13 00:29:34;;;;;;;6.43;3.20;;;18.80;99.90;;;;;;2518731;23;20006;-72
2023/08/13 00:30:35;;;;;;;9.43;2.83;;;18.80;99.90;;;;;;2518974;23;20548;-72
2023/08/13 00:31:35;;;;;;;7.68;3.10;;;18.80;99.90;;;;;;2506566;23;20005;-72
2023/08/13 00:32:36;;;;;;;4.97;3.20;;;18.80;99.90;;;;;;2506694;23;20042;-72
2023/08/13 00:33:37;;;;;;;5.80;2.78;;;18.70;99.90;;;;;;2506679;23;20478;-72
2023/08/13 00:34:37;;;;;;;6.25;2.60;;;18.80;99.90;;;;;;2505998;23;20086;-72
2023/08/13 00:35:38;;;;;;;4.03;2.60;;;18.80;99.90;;;;;;2519316;23;20101;-72
2023/08/13 00:36:38;;;;;;;4.88;2.55;;;18.70;99.90;;;;;;2518945;23;20324;-72
2023/08/13 00:37:39;;;;;;;9.90;2.83;;;18.70;99.90;;;;;;2505624;23;20017;-72
2023/08/13 00:38:39;;;;;;;5.72;3.00;;;18.80;99.90;;;;;;2494790;23;20003;-72
2023/08/13 00:39:40;;;;;;;4.68;2.70;;;18.70;99.90;;;;;;2506411;23;20483;-72
2023/08/13 00:40:40;;;;;;;8.38;3.25;;;18.80;99.90;;;;;;2519116;23;20018;-72
2023/08/13 00:41:41;;;;;;;4.78;2.35;;;18.70;99.90;;;;;;2506312;23;20042;-72
2023/08/13 00:42:41;;;;;;;4.40;2.55;;;18.70;99.90;;;;;;2506743;23;20046;-72
2023/08/13 00:43:42;;;;;;;6.97;2.92;;;18.70;99.90;;;;;;2518762;23;20003;-72
2023/08/13 00:44:42;;;;;;;5.28;2.88;;;18.70;99.90;;;;;;2519376;23;20003;-72
2023/08/13 00:45:43;;;;;;;8.80;2.85;;;18.70;99.90;;;;;;2518936;23;20427;-72
2023/08/13 00:46:44;;;;;;;6.05;2.95;;;18.70;99.90;;;;;;2518785;23;19998;-72
2023/08/13 00:47:46;;;;;;;5.85;2.72;;;18.70;99.90;;;;;;2518806;23;19998;-72
2023/08/13 00:48:47;;;;;;;7.15;3.13;;;18.70;99.90;;;;;;2518215;23;20033;-72
2023/08/13 00:49:50;;;;;;;6.88;2.70;;;18.70;99.90;;;;;;2518809;23;20013;-72
2023/08/13 00:50:51;;;;;;;8.93;2.85;;;18.60;99.90;;;;;;2518930;23;20081;-72
2023/08/13 00:51:52;;;;;;;7.18;2.72;;;18.70;99.90;;;;;;2519228;23;20430;-72
2023/08/13 00:52:53;;;;;;;4.65;2.80;;;18.70;99.90;;;;;;2519302;23;20499;-72
2023/08/13 00:53:54;;;;;;;7.32;2.80;;;18.70;99.90;;;;;;2505041;23;20082;-72
2023/08/13 00:54:54;;;;;;;6.85;2.75;;;18.60;99.90;;;;;;2506813;23;20006;-72
2023/08/13 00:55:56;;;;;;;4.97;3.10;;;18.60;99.90;;;;;;2519321;23;20030;-72
2023/08/13 00:56:57;;;;;;;6.85;2.50;;;18.60;99.90;;;;;;2517998;23;20401;-72
2023/08/13 00:57:58;;;;;;;6.05;2.80;;;18.60;99.90;;;;;;2518146;23;20002;-72
2023/08/13 00:58:58;;;;;;;7.05;3.10;;;18.60;99.90;;;;;;2519499;23;20010;-72
2023/08/13 00:59:59;;;;;;;5.60;2.80;;;18.60;99.90;;;;;;2506194;23;19998;-72
2023/08/13 01:01:00;;;;;;;6.35;3.20;;;18.60;99.90;;;;;;2506845;23;20009;-72
2023/08/13 01:02:00;;;;;;;6.90;2.92;;;18.60;99.90;;;;;;2519458;23;20006;-72
2023/08/13 01:03:01;;;;;;;5.13;2.75;;;18.60;99.90;;;;;;2519358;23;20009;-72
2023/08/13 01:04:02;;;;;;;7.25;2.65;;;18.60;99.90;;;;;;2519375;23;20439;-72
2023/08/13 01:05:05;;;;;;;5.50;2.90;;;18.60;99.90;;;;;;2519822;23;20026;-72
2023/08/13 01:06:17;;;;;;;4.88;3.00;;;18.60;99.90;;;;;;2506021;23;20042;-72
2023/08/13 01:07:38;;;;;;;4.25;2.50;;;18.60;99.90;;;;;;2507041;23;20030;-72
2023/08/13 01:08:50;;;;;;;5.00;2.35;;;18.60;99.90;;;;;;2519168;23;20423;-72
2023/08/13 01:10:11;;;;;;;7.93;2.83;;;18.60;99.90;;;;;;2519552;23;20062;-72
2023/08/13 01:11:24;;;;;;;3.65;2.13;;;18.60;99.90;;;;;;2519296;23;20479;-72
2023/08/13 01:12:40;;;;;;;8.45;2.78;;;18.60;99.90;;;;;;2518945;23;20093;-72
2023/08/13 01:13:50;;;;;;;4.53;2.83;;;18.60;99.90;;;;;;2517679;23;20006;-72
2023/08/13 01:15:18;;;;;;;6.30;2.80;;;18.60;99.90;;;;;;2519388;23;20005;-72
2023/08/13 01:16:19;;;;;;;7.30;3.08;;;18.60;99.90;;;;;;2518157;23;20006;-72
2023/08/13 01:17:22;;;;;;;5.65;2.75;;;18.50;99.90;;;;;;2516707;23;20767;-72
2023/08/13 01:18:24;;;;;;;7.50;3.45;;;18.60;99.90;;;;;;2518911;23;20308;-72
2023/08/13 01:19:25;;;;;;;5.22;2.97;;;18.60;99.90;;;;;;2506131;23;20019;-72
2023/08/13 01:20:39;;;;;;;5.70;2.78;;;18.60;99.90;;;;;;2506142;23;20007;-72
2023/08/13 01:21:40;;;;;;;4.55;2.85;;;18.60;99.90;;;;;;2518707;23;20058;-72
2023/08/13 01:22:47;;;;;;;6.72;3.15;;;18.60;99.90;;;;;;2519243;23;20430;-72
2023/08/13 01:23:48;;;;;;;6.25;3.13;;;18.60;99.90;;;;;;2518920;23;20327;-72
2023/08/13 01:24:49;;;;;;;6.68;3.33;;;18.60;99.90;;;;;;2519581;23;20081;-72
2023/08/13 01:25:56;;;;;;;8.50;3.60;;;18.60;99.90;;;;;;2505639;23;20007;-72
2023/08/13 01:27:09;;;;;;;6.60;2.80;;;18.60;99.90;;;;;;2507525;23;20085;-72
2023/08/13 01:28:50;;;;;;;7.90;3.75;;;18.60;99.90;;;;;;2519471;23;20010;-72
2023/08/13 01:30:38;;;;;;;9.13;3.03;;;18.60;99.90;;;;;;2518762;23;20427;-72
2023/08/13 01:31:40;;;;;;;3.92;2.53;;;18.60;99.90;;;;;;2519219;23;20002;-72
2023/08/13 01:32:47;;;;;;;7.60;2.88;;;18.60;99.90;;;;;;2506097;23;20006;-72
2023/08/13 01:33:50;;;;;;;6.15;3.13;;;18.60;99.90;;;;;;2508062;23;20071;-72
2023/08/13 01:34:51;;;;;;;6.63;3.00;;;18.60;99.90;;;;;;2518805;23;20010;-72
2023/08/13 01:35:56;;;;;;;5.57;2.75;;;18.60;99.90;;;;;;2518880;23;20430;-72
2023/08/13 01:36:57;;;;;;;5.15;2.92;;;18.60;99.90;;;;;;2518747;23;20003;-72
2023/08/13 01:38:02;;;;;;;8.77;3.70;;;18.60;99.90;;;;;;2518956;23;20006;-72
2023/08/13 01:39:05;;;;;;;7.72;2.88;;;18.70;99.90;;;;;;2518979;23;20006;-72
2023/08/13 01:40:06;;;;;;;8.55;2.78;;;18.60;99.90;;;;;;2519416;23;20057;-72
2023/08/13 01:41:06;;;;;;;5.85;2.85;;;18.70;99.90;;;;;;2519075;23;20073;-72
2023/08/13 01:42:10;;;;;;;5.30;3.45;;;18.70;99.90;;;;;;2518698;23;19994;-72
2023/08/13 01:43:10;;;;;;;6.78;3.00;;;18.70;99.90;;;;;;2519248;23;20465;-72
2023/08/13 01:44:11;;;;;;;8.82;3.00;;;18.70;99.90;;;;;;2518275;23;20329;-72
2023/08/13 01:45:11;;;;;;;8.75;3.03;;;18.70;99.90;;;;;;2519612;23;19999;-72
2023/08/13 01:46:12;;;;;;;4.43;2.90;;;18.70;99.90;;;;;;2518589;23;20006;-72
2023/08/13 01:47:12;;;;;;;8.77;3.35;;;18.70;99.90;;;;;;2517933;23;19999;-72
2023/08/13 01:48:13;;;;;;;8.43;3.28;;;18.70;99.90;;;;;;2519427;23;20014;-72
2023/08/13 01:49:14;;;;;;;5.28;2.75;;;18.70;99.90;;;;;;2518514;23;20081;-72
2023/08/13 01:50:14;;;;;;;4.22;2.72;;;18.70;99.90;;;;;;2519396;23;20401;-72
2023/08/13 01:51:15;;;;;;;4.95;2.53;;;18.70;99.90;;;;;;2518473;23;20343;-72
2023/08/13 01:52:15;;;;;;;6.57;3.15;;;18.70;99.90;;;;;;2519657;23;20052;-72
2023/08/13 01:53:16;;;;;;;6.65;3.35;;;18.70;99.90;;;;;;2519043;23;20058;-72
2023/08/13 01:54:17;;;;;;;4.78;2.50;;;18.70;99.90;;;;;;2506594;23;20014;-72
2023/08/13 01:55:17;;;;;;;6.10;2.92;;;18.70;99.90;;;;;;2506358;23;20591;-72
2023/08/13 01:56:18;;;;;;;5.85;3.05;;;18.70;99.90;;;;;;2518839;23;20010;-72
2023/08/13 01:57:18;;;;;;;5.05;2.80;;;18.70;99.90;;;;;;2518155;23;20342;-72
2023/08/13 01:58:19;;;;;;;7.22;3.10;;;18.70;99.90;;;;;;2519111;23;20010;-72
2023/08/13 01:59:20;;;;;;;5.95;3.00;;;18.70;99.90;;;;;;2506404;23;20061;-72
2023/08/13 02:00:20;;;;;;;7.30;3.40;;;18.70;99.90;;;;;;2506423;23;20066;-72
2023/08/13 02:01:21;;;;;;;4.97;3.15;;;18.70;99.90;;;;;;2519346;23;20002;-72
2023/08/13 02:02:22;;;;;;;6.72;3.53;;;18.70;99.90;;;;;;2519619;23;20431;-72
2023/08/13 02:03:22;;;;;;;6.75;3.15;;;18.60;99.90;;;;;;2518953;23;20010;-72
2023/08/13 02:04:23;;;;;;;8.35;3.47;;;18.60;99.90;;;;;;2519407;23;19999;-72
2023/08/13 02:05:23;;;;;;;6.72;2.80;;;18.60;99.90;;;;;;2519918;23;20426;-72
2023/08/13 02:06:24;;;;;;;7.28;2.80;;;18.60;99.90;;;;;;2519287;23;20062;-72
2023/08/13 02:07:24;;;;;;;6.68;3.55;;;18.60;99.90;;;;;;2518678;23;20089;-72
2023/08/13 02:08:25;;;;;;;7.53;3.22;;;18.60;99.90;;;;;;2519436;23;20007;-72
2023/08/13 02:09:25;;;;;;;6.32;2.70;;;18.60;99.90;;;;;;2518880;23;20002;-72
2023/08/13 02:10:26;;;;;;;7.20;2.88;;;18.60;99.90;;;;;;2519107;23;20010;-72
2023/08/13 02:11:27;;;;;;;9.63;3.20;;;18.60;99.90;;;;;;2518636;23;20006;-72
2023/08/13 02:12:27;;;;;;;4.50;3.33;;;18.60;99.90;;;;;;2517742;23;20006;-72
2023/08/13 02:13:28;;;;;;;5.00;2.70;;;18.60;99.90;;;;;;2506661;23;20014;-72
2023/08/13 02:14:29;;;;;;;7.43;2.90;;;18.60;99.90;;;;;;2506439;23;20015;-73
2023/08/13 02:15:29;;;;;;;5.78;2.70;;;18.60;99.90;;;;;;2506487;23;20090;-72
2023/08/13 02:16:30;;;;;;;6.30;3.30;;;18.60;99.90;;;;;;2506234;23;20436;-72
2023/08/13 02:17:30;;;;;;;7.22;3.50;;;18.60;99.90;;;;;;2517757;23;20093;-72
2023/08/13 02:18:31;;;;;;;7.82;3.00;;;18.60;99.90;;;;;;2519272;23;20389;-72
2023/08/13 02:19:32;;;;;;;7.68;3.42;;;18.50;99.90;;;;;;2518714;23;20006;-72
2023/08/13 02:20:32;;;;;;;9.63;3.30;;;18.60;99.90;;;;;;2518528;23;20006;-72
2023/08/13 02:21:33;;;;;;;11.07;3.20;;;18.60;99.90;;;;;;2518941;23;20014;-72
2023/08/13 02:22:33;;;;;;;4.18;2.63;;;18.60;99.90;;;;;;2519129;23;20085;-72
2023/08/13 02:23:34;;;;;;;6.07;3.00;;;18.60;99.90;;;;;;2519413;23;20030;-73
2023/08/13 02:24:34;;;;;;;4.07;2.70;;;18.60;99.90;;;;;;2518979;23;20340;-72
2023/08/13 02:25:36;;;;;;;7.30;3.08;;;18.50;99.90;;;;;;2519001;23;20013;-72
2023/08/13 02:26:37;;;;;;;6.35;3.13;;;18.50;99.90;;;;;;2519357;23;20021;-72
2023/08/13 02:27:37;;;;;;;5.28;3.30;;;18.50;99.90;;;;;;2518111;23;20498;-72
2023/08/13 02:28:38;;;;;;;7.13;3.22;;;18.50;99.90;;;;;;2519110;23;20007;-72
2023/08/13 02:29:38;;;;;;;7.35;2.83;;;18.50;99.90;;;;;;2519337;23;20010;-72
2023/08/13 02:30:39;;;;;;;4.22;2.83;;;18.50;99.90;;;;;;2518349;23;20010;-72
2023/08/13 02:31:39;;;;;;;8.43;3.25;;;18.50;99.90;;;;;;2506413;23;20515;-72
2023/08/13 02:32:40;;;;;;;10.30;3.72;;;18.50;99.90;;;;;;2506338;23;20017;-72
2023/08/13 02:33:40;;;;;;;9.10;2.83;;;18.40;99.90;;;;;;2519146;23;20009;-72
2023/08/13 02:34:45;;;;;;;5.93;3.10;;;18.50;99.90;;;;;;2519338;23;20006;-72
2023/08/13 02:35:46;;;;;;;6.55;3.22;;;18.40;99.90;;;;;;2518206;23;20002;-72
2023/08/13 02:36:47;;;;;;;6.35;2.88;;;18.50;99.90;;;;;;2505336;23;20042;-72
2023/08/13 02:37:47;;;;;;;12.73;3.20;;;18.40;99.90;;;;;;2506265;23;20002;-72
2023/08/13 02:38:48;;;;;;;4.35;2.80;;;18.40;99.90;;;;;;2518243;23;20796;-72
2023/08/13 02:39:48;;;;;;;6.18;2.67;;;18.40;99.90;;;;;;2519347;23;20069;-72
2023/08/13 02:40:49;;;;;;;9.23;3.53;;;18.40;99.90;;;;;;2518611;23;20073;-72
2023/08/13 02:41:49;;;;;;;11.68;2.55;;;18.40;99.90;;;;;;2518764;23;20272;-72
2023/08/13 02:42:50;;;;;;;6.00;2.67;;;18.40;99.90;;;;;;2518911;23;20003;-72
2023/08/13 02:43:56;;;;;;;6.70;2.95;;;18.40;99.90;;;;;;2518960;23;20530;-72
2023/08/13 02:44:57;;;;;;;6.97;3.10;;;18.40;99.90;;;;;;2506241;23;20612;-72
2023/08/13 02:45:57;;;;;;;5.88;2.60;;;18.40;99.90;;;;;;2507077;23;20007;-72
2023/08/13 02:46:58;;;;;;;5.30;2.63;;;18.30;99.90;;;;;;2519203;23;20013;-72
2023/08/13 02:47:59;;;;;;;6.32;2.80;;;18.30;99.90;;;;;;2520031;23;20680;-72
2023/08/13 02:48:59;;;;;;;4.80;2.92;;;18.30;99.90;;;;;;2506845;23;20007;-72
2023/08/13 02:50:00;;;;;;;9.10;3.25;;;18.30;99.90;;;;;;2506808;23;20027;-72
2023/08/13 02:51:00;;;;;;;7.13;3.20;;;18.30;99.90;;;;;;2520042;23;20012;-72
2023/08/13 02:52:02;;;;;;;8.32;3.33;;;18.30;99.90;;;;;;2519557;23;20006;-72
2023/08/13 02:53:02;;;;;;;9.10;3.22;;;18.30;99.90;;;;;;2519449;23;20053;-72
2023/08/13 02:54:03;;;;;;;11.85;3.40;;;18.30;99.90;;;;;;2520032;23;20085;-72
2023/08/13 02:55:04;;;;;;;5.43;3.10;;;18.30;99.90;;;;;;2519415;23;20066;-73
2023/08/13 02:56:04;;;;;;;9.88;3.50;;;18.20;99.90;;;;;;2520028;23;20003;-72
2023/08/13 02:57:05;;;;;;;6.00;3.00;;;18.20;99.90;;;;;;2518732;23;20034;-72
2023/08/13 02:58:06;;;;;;;5.07;2.97;;;18.20;99.90;;;;;;2504995;23;20083;-72
2023/08/13 02:59:06;;;;;;;8.48;3.15;;;18.20;99.90;;;;;;2506833;23;20427;-73
2023/08/13 03:00:08;;;;;;;9.55;3.05;;;18.20;99.90;;;;;;2519419;23;20002;-72
2023/08/13 03:01:08;;;;;;;5.05;2.70;;;18.20;99.90;;;;;;2506822;23;20034;-72
2023/08/13 03:02:09;;;;;;;10.05;3.38;;;18.20;99.90;;;;;;2507482;23;20007;-72
2023/08/13 03:03:10;;;;;;;8.02;3.63;;;18.20;99.90;;;;;;2519936;23;20596;-72
2023/08/13 03:04:10;;;;;;;5.65;2.58;;;18.20;99.90;;;;;;2519637;23;19998;-72
2023/08/13 03:05:11;;;;;;;7.88;4.10;;;18.20;99.90;;;;;;2519061;23;20682;-73
2023/08/13 03:06:11;;;;;;;12.82;3.45;;;18.20;99.90;;;;;;2520245;23;20018;-72
2023/08/13 03:07:12;;;;;;;6.82;3.08;;;18.20;99.90;;;;;;2518359;23;20002;-72
2023/08/13 03:08:12;;;;;;;7.88;3.13;;;18.10;99.90;;;;;;2519124;23;20457;-72
2023/08/13 03:09:20;;;;;;;7.00;2.85;;;18.10;99.90;;;;;;2519861;23;20014;-72
2023/08/13 03:10:20;;;;;;;8.02;3.15;;;18.10;99.90;;;;;;2519208;23;20434;-73
2023/08/13 03:11:21;;;;;;;6.10;2.83;;;18.10;99.90;;;;;;2506395;23;20459;-72
2023/08/13 03:12:22;;;;;;;8.00;2.95;;;18.10;99.90;;;;;;2507290;23;20038;-72
2023/08/13 03:13:22;;;;;;;9.55;3.08;;;18.10;99.90;;;;;;2519255;23;20481;-72
2023/08/13 03:14:23;;;;;;;5.65;3.13;;;18.10;99.90;;;;;;2520093;23;20010;-72
2023/08/13 03:15:23;;;;;;;7.30;3.30;;;18.10;99.90;;;;;;2519156;23;20011;-72
2023/08/13 03:16:24;;;;;;;9.27;3.05;;;18.10;99.90;;;;;;2519267;23;20010;-73
2023/08/13 03:17:24;;;;;;;6.30;3.00;;;18.10;99.90;;;;;;2506416;23;20007;-72
2023/08/13 03:18:25;;;;;;;4.30;2.60;;;18.10;99.90;;;;;;2494793;23;20324;-72
2023/08/13 03:19:25;;;;;;;8.13;3.30;;;18.10;99.90;;;;;;2506794;23;20014;-72
2023/08/13 03:20:26;;;;;;;15.55;3.85;;;18.00;99.90;;;;;;2519721;23;20767;-72
2023/08/13 03:21:27;;;;;;;7.50;2.72;;;18.00;99.90;;;;;;2519209;23;20044;-72
2023/08/13 03:22:27;;;;;;;8.07;3.25;;;18.00;99.90;;;;;;2519587;23;20482;-72
2023/08/13 03:23:29;;;;;;;8.68;3.45;;;18.00;99.90;;;;;;2506591;23;20015;-72
2023/08/13 03:24:29;;;;;;;10.68;3.78;;;18.00;99.90;;;;;;2507195;23;20498;-72
2023/08/13 03:25:30;;;;;;;5.40;3.03;;;18.00;99.90;;;;;;2506673;23;20007;-72
2023/08/13 03:26:31;;;;;;;5.20;2.70;;;18.00;99.90;;;;;;2506928;23;20335;-72
2023/08/13 03:27:31;;;;;;;7.50;2.40;;;18.00;99.90;;;;;;2518468;23;20003;-72
2023/08/13 03:28:32;;;;;;;5.57;2.67;;;18.00;99.90;;;;;;2520049;23;19999;-73
2023/08/13 03:29:32;;;;;;;6.43;3.03;;;18.00;99.90;;;;;;2519091;23;20478;-72
2023/08/13 03:30:33;;;;;;;6.90;3.08;;;18.00;99.90;;;;;;2518945;23;20018;-72
2023/08/13 03:31:34;;;;;;;7.30;2.80;;;18.00;99.90;;;;;;2519870;23;20017;-72
2023/08/13 03:32:36;;;;;;;7.72;3.03;;;17.90;99.90;;;;;;2506383;23;20007;-72
2023/08/13 03:33:36;;;;;;;4.95;2.65;;;17.90;99.90;;;;;;2505702;23;20054;-72
2023/08/13 03:34:37;;;;;;;5.72;3.20;;;17.90;99.90;;;;;;2519632;23;20049;-72
2023/08/13 03:35:38;;;;;;;10.15;3.45;;;17.90;99.90;;;;;;2518978;23;20326;-72
2023/08/13 03:36:38;;;;;;;5.88;3.08;;;17.90;99.90;;;;;;2519809;23;20002;-72
2023/08/13 03:37:39;;;;;;;5.68;3.35;;;17.90;99.90;;;;;;2518558;23;19998;-72
2023/08/13 03:38:39;;;;;;;6.80;3.08;;;17.90;99.90;;;;;;2519066;23;20585;-72
2023/08/13 03:39:40;;;;;;;4.60;2.40;;;17.90;99.90;;;;;;2519915;23;20080;-72
2023/08/13 03:40:40;;;;;;;8.30;3.33;;;17.90;99.90;;;;;;2519207;23;20007;-72
2023/08/13 03:41:41;;;;;;;6.25;2.70;;;17.90;99.90;;;;;;2519530;23;20009;-72
2023/08/13 03:42:41;;;;;;;8.70;2.80;;;17.90;99.90;;;;;;2519728;23;20509;-72
2023/08/13 03:43:42;;;;;;;7.05;2.63;;;17.80;99.90;;;;;;2519430;23;20003;-72
2023/08/13 03:44:43;;;;;;;6.68;3.00;;;17.80;99.90;;;;;;2506873;23;20327;-72
2023/08/13 03:45:43;;;;;;;7.38;3.05;;;17.80;99.90;;;;;;2506392;23;20043;-72
2023/08/13 03:46:44;;;;;;;9.52;3.58;;;17.80;99.90;;;;;;2519081;23;20003;-72
2023/08/13 03:47:45;;;;;;;8.52;3.95;;;17.80;99.90;;;;;;2519454;23;20376;-72
2023/08/13 03:48:45;;;;;;;7.03;3.13;;;17.80;99.90;;;;;;2519223;23;20010;-72
2023/08/13 03:49:46;;;;;;;7.85;3.20;;;17.80;99.90;;;;;;2519338;23;20005;-72
2023/08/13 03:50:46;;;;;;;4.85;2.40;;;17.80;99.90;;;;;;2519703;23;19998;-72
2023/08/13 03:51:47;;;;;;;4.53;2.72;;;17.80;99.90;;;;;;2518826;23;20006;-72
2023/08/13 03:52:47;;;;;;;4.53;2.47;;;17.70;99.90;;;;;;2519895;23;20010;-72
2023/08/13 03:53:48;;;;;;;9.13;2.97;;;17.70;99.90;;;;;;2519009;23;20002;-72
2023/08/13 03:54:48;;;;;;;8.05;2.85;;;17.70;99.90;;;;;;2519369;23;20380;-72
2023/08/13 03:55:49;;;;;;;4.15;2.70;;;17.70;99.90;;;;;;2519920;23;20010;-72
2023/08/13 03:56:50;;;;;;;5.43;2.67;;;17.70;99.90;;;;;;2518469;23;20074;-72
2023/08/13 03:57:53;;;;;;;6.68;2.90;;;17.70;99.90;;;;;;2518816;23;20007;-72
2023/08/13 03:58:54;;;;;;;8.05;2.78;;;17.70;99.90;;;;;;2519642;23;20042;-72
2023/08/13 03:59:54;;;;;;;5.88;2.92;;;17.60;99.90;;;;;;2519280;23;20423;-72
2023/08/13 04:00:55;;;;;;;5.97;2.75;;;17.60;99.90;;;;;;2519303;23;20037;-72
2023/08/13 04:01:57;;;;;;;6.10;2.95;;;17.70;99.90;;;;;;2518997;23;19998;-72
2023/08/13 04:02:58;;;;;;;9.48;3.58;;;17.60;99.90;;;;;;2519659;23;20363;-72
2023/08/13 04:03:58;;;;;;;9.00;3.05;;;17.60;99.90;;;;;;2519649;23;20073;-72
2023/08/13 04:04:59;;;;;;;9.98;3.45;;;17.60;99.90;;;;;;2505233;23;20075;-72
2023/08/13 04:06:00;;;;;;;7.63;3.33;;;17.60;99.90;;;;;;2505948;23;20010;-72
2023/08/13 04:07:01;;;;;;;6.38;2.97;;;17.60;99.90;;;;;;2518761;23;20540;-72
2023/08/13 04:08:02;;;;;;;8.45;2.33;;;17.50;99.90;;;;;;2519050;23;20002;-72
2023/08/13 04:09:03;;;;;;;5.55;2.75;;;17.60;99.90;;;;;;2518631;23;20034;-72
2023/08/13 04:10:04;;;;;;;7.28;3.10;;;17.60;99.90;;;;;;2519429;23;20011;-72
2023/08/13 04:11:05;;;;;;;7.63;2.45;;;17.50;99.90;;;;;;2519068;23;20009;-72
2023/08/13 04:12:06;;;;;;;7.22;2.50;;;17.60;99.90;;;;;;2519534;23;20359;-72
2023/08/13 04:13:06;;;;;;;5.28;2.63;;;17.50;99.90;;;;;;2518684;23;19998;-72
2023/08/13 04:14:07;;;;;;;6.68;3.22;;;17.50;99.90;;;;;;2519435;23;20364;-72
2023/08/13 04:15:08;;;;;;;12.18;3.05;;;17.50;99.90;;;;;;2518906;23;20038;-72
2023/08/13 04:16:08;;;;;;;6.90;2.80;;;17.50;99.90;;;;;;2519157;23;20061;-72
2023/08/13 04:17:09;;;;;;;6.25;2.83;;;17.50;99.90;;;;;;2518715;23;19998;-72
2023/08/13 04:18:09;;;;;;;7.60;2.95;;;17.50;99.90;;;;;;2519292;23;20053;-72
2023/08/13 04:19:10;;;;;;;5.55;2.90;;;17.50;99.90;;;;;;2518835;23;20017;-71
2023/08/13 04:20:11;;;;;;;7.30;2.70;;;17.40;99.90;;;;;;2519781;23;20034;-71
2023/08/13 04:21:11;;;;;;;6.15;2.72;;;17.50;99.90;;;;;;2519030;23;20003;-71
2023/08/13 04:22:12;;;;;;;8.93;3.00;;;17.50;99.90;;;;;;2519703;23;19998;-72
2023/08/13 04:23:12;;;;;;;7.57;3.05;;;17.40;99.90;;;;;;2518670;23;20533;-71
2023/08/13 04:24:13;;;;;;;6.53;2.50;;;17.40;99.90;;;;;;2519183;23;20030;-72
2023/08/13 04:25:13;;;;;;;6.45;2.65;;;17.40;99.90;;;;;;2519579;23;20045;-72
2023/08/13 04:26:14;;;;;;;5.53;2.40;;;17.40;99.90;;;;;;2519350;23;20004;-72
2023/08/13 04:27:15;;;;;;;6.35;2.80;;;17.40;99.90;;;;;;2518077;23;20038;-72
2023/08/13 04:28:15;;;;;;;9.10;2.70;;;17.40;99.90;;;;;;2519697;23;20021;-72
2023/08/13 04:29:16;;;;;;;7.20;3.13;;;17.40;99.90;;;;;;2518989;23;20494;-71
2023/08/13 04:30:16;;;;;;;7.78;3.20;;;17.40;99.90;;;;;;2519387;23;20090;-71
2023/08/13 04:31:19;;;;;;;8.02;2.72;;;17.40;99.90;;;;;;2519139;23;20011;-71
2023/08/13 04:32:20;;;;;;;7.30;3.10;;;17.40;99.90;;;;;;2519397;23;20020;-71
2023/08/13 04:33:21;;;;;;;6.97;2.85;;;17.40;99.90;;;;;;2519480;23;20003;-72
2023/08/13 04:34:21;;;;;;;5.82;2.50;;;17.40;99.90;;;;;;2506936;23;20011;-71
2023/08/13 04:35:25;;;;;;;4.22;2.50;;;17.40;99.90;;;;;;2506201;23;20010;-72
2023/08/13 04:36:25;;;;;;;6.28;2.95;;;17.40;99.90;;;;;;2519282;23;20010;-71
2023/08/13 04:37:26;;;;;;;8.05;2.50;;;17.40;99.90;;;;;;2518114;23;20038;-72
2023/08/13 04:38:26;;;;;;;4.05;2.28;;;17.40;99.90;;;;;;2519547;23;20017;-72
2023/08/13 04:39:27;;;;;;;8.13;2.30;;;17.40;99.90;;;;;;2519033;23;20412;-71
2023/08/13 04:40:27;;;;;;;6.75;3.22;;;17.30;99.90;;;;;;2518243;23;20062;-71
2023/08/13 04:41:28;;;;;;;9.85;3.17;;;17.30;99.90;;;;;;2519291;23;20388;-72
2023/08/13 04:42:29;;;;;;;9.23;3.00;;;17.40;99.90;;;;;;2518981;23;20034;-72
2023/08/13 04:43:29;;;;;;;6.18;2.47;;;17.40;99.90;;;;;;2519305;23;20479;-71
2023/08/13 04:44:30;;;;;;;9.30;2.70;;;17.40;99.90;;;;;;2507046;23;19999;-72
2023/08/13 04:45:30;;;;;;;4.90;2.47;;;17.40;99.90;;;;;;2506612;23;20005;-72
2023/08/13 04:46:31;;;;;;;5.20;2.83;;;17.30;99.90;;;;;;2519114;23;20026;-72
2023/08/13 04:47:31;;;;;;;10.68;2.60;;;17.30;99.90;;;;;;2518443;23;20010;-71
2023/08/13 04:48:46;;;;;;;4.85;2.53;;;17.30;99.90;;;;;;2519432;23;20006;-71
2023/08/13 04:49:46;;;;;;;5.20;2.72;;;17.40;99.90;;;;;;2519597;23;20122;-72
2023/08/13 04:50:47;;;;;;;5.97;2.30;;;17.30;99.90;;;;;;2519060;23;20062;-72
2023/08/13 04:51:47;;;;;;;6.57;2.67;;;17.30;99.90;;;;;;2518653;23;20010;-72
2023/08/13 04:52:48;;;;;;;7.10;3.05;;;17.30;99.90;;;;;;2519694;23;20338;-71
2023/08/13 04:53:49;;;;;;;6.38;2.90;;;17.40;99.90;;;;;;2518880;23;20013;-72
2023/08/13 04:54:49;;;;;;;8.48;2.92;;;17.40;99.90;;;;;;2519195;23;20002;-71
2023/08/13 04:55:50;;;;;;;5.68;2.63;;;17.40;99.90;;;;;;2519505;23;20013;-71
2023/08/13 04:56:50;;;;;;;5.45;2.72;;;17.40;99.90;;;;;;2518709;23;20090;-72
2023/08/13 04:57:51;;;;;;;7.68;3.05;;;17.40;99.90;;;;;;2518829;23;20002;-71
2023/08/13 04:58:51;;;;;;;7.65;3.13;;;17.40;99.90;;;;;;2519211;23;20671;-72
2023/08/13 04:59:52;;;;;;;8.07;3.13;;;17.50;99.90;;;;;;2506267;23;20334;-72
2023/08/13 05:00:53;;;;;;;6.88;2.55;;;17.50;99.90;;;;;;2507128;23;20103;-72
2023/08/13 05:01:53;;;;;;;8.32;3.10;;;17.50;99.90;;;;;;2518985;23;20039;-72
2023/08/13 05:02:54;;;;;;;7.13;2.40;;;17.40;99.90;;;;;;2519332;23;20006;-71
2023/08/13 05:03:54;;;;;;;5.25;2.60;;;17.50;99.90;;;;;;2519581;23;20391;-71
2023/08/13 05:04:55;;;;;;;7.95;2.53;;;17.50;99.90;;;;;;2518593;23;20077;-71
2023/08/13 05:05:55;;;;;;;7.97;2.85;;;17.50;99.90;;;;;;2519604;23;20003;-72
2023/08/13 05:06:56;;;;;;;8.77;2.90;;;17.50;99.90;;;;;;2518393;23;19995;-72
2023/08/13 05:07:56;;;;;;;6.57;2.72;;;17.50;99.90;;;;;;2519071;23;20009;-72
2023/08/13 05:08:57;;;;;;;6.75;2.78;;;17.50;99.90;;;;;;2518127;23;20006;-72
2023/08/13 05:09:58;;;;;;;6.63;2.40;;;17.60;99.90;;;;;;2518730;23;20459;-72
2023/08/13 05:10:58;;;;;;;5.38;2.65;;;17.50;99.90;;;;;;2518959;23;20066;-72
2023/08/13 05:11:59;;;;;;;11.43;2.65;;;17.60;99.90;;;;;;2518793;23;20006;-72
2023/08/13 05:13:01;;;;;;;9.32;2.42;;;17.60;99.90;;;;;;2518911;23;20461;-72
2023/08/13 05:14:02;;;;;;;8.18;2.63;;;17.60;99.90;;;;;;2506635;23;20030;-72
2023/08/13 05:15:03;;;;;;;9.70;2.40;;;17.60;99.90;;;;;;2506268;23;20006;-72
2023/08/13 05:16:04;;;;;;;9.65;2.67;;;17.60;99.90;;;;;;2519014;23;20010;-72
2023/08/13 05:17:17;;;;;;;9.25;2.65;;;17.60;99.90;;;;;;2518143;23;20514;-72
2023/08/13 05:18:17;;;;;;;8.70;2.40;;;17.60;99.90;;;;;;2519343;23;20014;-72
2023/08/13 05:19:18;;;;;;;9.27;3.03;;;17.60;99.90;;;;;;2518424;23;20010;-72
2023/08/13 05:20:19;;;;;;;11.18;2.83;;;17.70;99.90;;;;;;2518956;23;20006;-72